地図

経路データ

SID SEASON NUMBER BASIN SUBBASIN NAME ISO_TIME NATURE LAT LON WMO_WIND WMO_PRES WMO_AGENCY TRACK_TYPE DIST2LAND LANDFALL IFLAG USA_AGENCY USA_ATCF_ID USA_LAT USA_LON USA_RECORD USA_STATUS USA_WIND USA_PRES USA_SSHS USA_R34_NE USA_R34_SE USA_R34_SW USA_R34_NW USA_R50_NE USA_R50_SE USA_R50_SW USA_R50_NW USA_R64_NE USA_R64_SE USA_R64_SW USA_R64_NW USA_POCI USA_ROCI USA_RMW USA_EYE TOKYO_LAT TOKYO_LON TOKYO_GRADE TOKYO_WIND TOKYO_PRES TOKYO_R50_DIR TOKYO_R50_LONG TOKYO_R50_SHORT TOKYO_R30_DIR TOKYO_R30_LONG TOKYO_R30_SHORT TOKYO_LAND CMA_LAT CMA_LON CMA_CAT CMA_WIND CMA_PRES HKO_LAT HKO_LON HKO_CAT HKO_WIND HKO_PRES NEWDELHI_LAT NEWDELHI_LON NEWDELHI_GRADE NEWDELHI_WIND NEWDELHI_PRES NEWDELHI_CI NEWDELHI_DP NEWDELHI_POCI REUNION_LAT REUNION_LON REUNION_TYPE REUNION_WIND REUNION_PRES REUNION_TNUM REUNION_CI REUNION_RMW REUNION_R34_NE REUNION_R34_SE REUNION_R34_SW REUNION_R34_NW REUNION_R50_NE REUNION_R50_SE REUNION_R50_SW REUNION_R50_NW REUNION_R64_NE REUNION_R64_SE REUNION_R64_SW REUNION_R64_NW BOM_LAT BOM_LON BOM_TYPE BOM_WIND BOM_PRES BOM_TNUM BOM_CI BOM_RMW BOM_R34_NE BOM_R34_SE BOM_R34_SW BOM_R34_NW BOM_R50_NE BOM_R50_SE BOM_R50_SW BOM_R50_NW BOM_R64_NE BOM_R64_SE BOM_R64_SW BOM_R64_NW BOM_ROCI BOM_POCI BOM_EYE BOM_POS_METHOD BOM_PRES_METHOD NADI_LAT NADI_LON NADI_CAT NADI_WIND NADI_PRES WELLINGTON_LAT WELLINGTON_LON WELLINGTON_WIND WELLINGTON_PRES DS824_LAT DS824_LON DS824_STAGE DS824_WIND DS824_PRES TD9636_LAT TD9636_LON TD9636_STAGE TD9636_WIND TD9636_PRES TD9635_LAT TD9635_LON TD9635_WIND TD9635_PRES TD9635_ROCI NEUMANN_LAT NEUMANN_LON NEUMANN_CLASS NEUMANN_WIND NEUMANN_PRES MLC_LAT MLC_LON MLC_CLASS MLC_WIND MLC_PRES USA_GUST BOM_GUST BOM_GUST_PER REUNION_GUST REUNION_GUST_PER USA_SEAHGT USA_SEARAD_NE USA_SEARAD_SE USA_SEARAD_SW USA_SEARAD_NW STORM_SPEED STORM_DIR
1898245N14281 1898 35 NA CS NOT_NAMED 1898-09-02 00:00:00 TS 13.5000 -79.4000 main 420 381 _____________O -1 13.5000 -79.4000 TS 40 9 316
1898245N14281 1898 35 NA CS NOT_NAMED 1898-09-02 03:00:00 TS 13.8126 -79.7123 main 381 345 _____________P -1 13.8126 -79.7123 TS 42 8 316
1898245N14281 1898 35 NA CS NOT_NAMED 1898-09-02 06:00:00 TS 14.1000 -80.0000 main 345 321 _____________O -1 14.1000 -80.0000 TS 45 8 316
1898245N14281 1898 35 NA CS NOT_NAMED 1898-09-02 09:00:00 TS 14.3499 -80.2502 main 311 283 _____________P -1 14.3499 -80.2502 TS 50 7 316
1898245N14281 1898 35 NA CS NOT_NAMED 1898-09-02 12:00:00 TS 14.6000 -80.5000 main 283 247 _____________O -1 14.6000 -80.5000 TS 55 8 316
1898245N14281 1898 35 NA CS NOT_NAMED 1898-09-02 15:00:00 TS 14.9000 -80.8000 main 247 215 _____________P -1 14.9000 -80.8000 TS 57 8 316
1898245N14281 1898 35 NA CS NOT_NAMED 1898-09-02 18:00:00 TS 15.2000 -81.1000 main 215 198 _____________O -1 15.2000 -81.1000 TS 60 8 317
1898245N14281 1898 35 NA CS NOT_NAMED 1898-09-02 21:00:00 TS 15.4649 -81.3426 main 201 178 _____________P -1 15.4649 -81.3426 TS 62 7 316
1898245N14281 1898 35 NA CS NOT_NAMED 1898-09-03 00:00:00 TS 15.7000 -81.6000 main 178 163 _____________O -1 15.7000 -81.6000 HU 65 7 308
1898245N14281 1898 35 NA CS NOT_NAMED 1898-09-03 03:00:00 TS 15.9150 -81.9425 main 163 147 _____________P -1 15.9150 -81.9425 HU 65 8 301
1898245N14281 1898 35 NA CS NOT_NAMED 1898-09-03 06:00:00 TS 16.1000 -82.3000 main 147 132 _____________O -1 16.1000 -82.3000 HU 65 7 298
1898245N14281 1898 35 NA CS NOT_NAMED 1898-09-03 09:00:00 TS 16.2574 -82.6076 main 140 129 _____________P -1 16.2574 -82.6076 HU 65 7 298
1898245N14281 1898 35 NA CS NOT_NAMED 1898-09-03 12:00:00 TS 16.4000 -82.9000 main 134 130 _____________O -1 16.4000 -82.9000 HU 65 6 297
1898245N14281 1898 35 NA CS NOT_NAMED 1898-09-03 15:00:00 TS 16.5500 -83.2001 main 132 128 _____________P -1 16.5500 -83.2001 HU 65 7 298
1898245N14281 1898 35 NA CS NOT_NAMED 1898-09-03 18:00:00 TS 16.7000 -83.5000 main 132 125 _____________O -1 16.7000 -83.5000 HU 65 6 300
1898245N14281 1898 35 NA CS NOT_NAMED 1898-09-03 21:00:00 TS 16.8572 -83.7551 main 134 130 _____________P -1 16.8572 -83.7551 HU 65 6 298
1898245N14281 1898 35 NA CS NOT_NAMED 1898-09-04 00:00:00 TS 17.0000 -84.1000 main 135 130 _____________O -1 17.0000 -84.1000 HU 65 9 287
1898245N14281 1898 35 NA CS NOT_NAMED 1898-09-04 03:00:00 TS 17.1152 -84.6625 main 134 134 _____________P -1 17.1152 -84.6625 HU 65 12 280
1898245N14281 1898 35 NA CS NOT_NAMED 1898-09-04 06:00:00 TS 17.2000 -85.3000 main 145 145 _____________O -1 17.2000 -85.3000 HU 65 11 277
1898245N14281 1898 35 NA CS NOT_NAMED 1898-09-04 09:00:00 TS 17.2572 -85.8501 main 156 156 _____________P -1 17.2572 -85.8501 HU 65 11 275
1898245N14281 1898 35 NA CS NOT_NAMED 1898-09-04 12:00:00 TS 17.3000 -86.4000 main 165 129 _____________O -1 17.3000 -86.4000 HU 65 11 275
1898245N14281 1898 35 NA CS NOT_NAMED 1898-09-04 15:00:00 TS 17.3500 -87.0000 main 129 64 _____________P -1 17.3500 -87.0000 HU 70 12 275
1898245N14281 1898 35 NA CS NOT_NAMED 1898-09-04 18:00:00 TS 17.4000 -87.6000 main 64 10 _____________O -1 17.4000 -87.6000 HU 75 11 274
1898245N14281 1898 35 NA CS NOT_NAMED 1898-09-04 21:00:00 TS 17.4200 -88.1877 main 10 0 _____________P -1 17.4200 -88.1877 HU 70 11 275
1898245N14281 1898 35 NA NA NOT_NAMED 1898-09-05 00:00:00 TS 17.5000 -88.7000 main 0 0 _____________O -1 17.5000 -88.7000 HU 65 9 289
1898245N14281 1898 35 NA NA NOT_NAMED 1898-09-05 03:00:00 TS 17.7197 -89.0800 main 0 0 _____________P -1 17.7197 -89.0800 HU 62 8 307
1898245N14281 1898 35 NA NA NOT_NAMED 1898-09-05 06:00:00 TS 18.0000 -89.4000 main 0 0 _____________O -1 18.0000 -89.4000 TS 60 8 310
1898245N14281 1898 35 NA NA NOT_NAMED 1898-09-05 09:00:00 TS 18.2499 -89.7501 main 0 0 _____________P -1 18.2499 -89.7501 TS 55 8 307
1898245N14281 1898 35 NA NA NOT_NAMED 1898-09-05 12:00:00 TS 18.5000 -90.1000 main 0 0 _____________O -1 18.5000 -90.1000 TS 50 8 307
1898245N14281 1898 35 NA NA NOT_NAMED 1898-09-05 15:00:00 TS 18.7499 -90.4501 main 0 0 _____________P -1 18.7499 -90.4501 TS 47 8 307
1898245N14281 1898 35 NA NA NOT_NAMED 1898-09-05 18:00:00 TS 19.0000 -90.8000 main 0 0 _____________O -1 19.0000 -90.8000 TS 45 8 306
1898245N14281 1898 35 NA GM NOT_NAMED 1898-09-05 21:00:00 TS 19.2349 -91.1502 main 15 15 _____________P -1 19.2349 -91.1502 TS 50 8 307
1898245N14281 1898 35 NA GM NOT_NAMED 1898-09-06 00:00:00 TS 19.5000 -91.5000 main 59 59 _____________O -1 19.5000 -91.5000 TS 55 9 312
1898245N14281 1898 35 NA GM NOT_NAMED 1898-09-06 03:00:00 TS 19.8350 -91.8575 main 109 109 _____________P -1 19.8350 -91.8575 TS 60 10 317
1898245N14281 1898 35 NA GM NOT_NAMED 1898-09-06 06:00:00 TS 20.2000 -92.2000 main 162 162 _____________O -1 20.2000 -92.2000 HU 65 9 320
1898245N14281 1898 35 NA GM NOT_NAMED 1898-09-06 09:00:00 TS 20.5499 -92.5002 main 207 207 _____________P -1 20.5499 -92.5002 HU 65 9 321
1898245N14281 1898 35 NA GM NOT_NAMED 1898-09-06 12:00:00 TS 20.9000 -92.8000 main 243 243 _____________O -1 20.9000 -92.8000 HU 65 9 319
1898245N14281 1898 35 NA GM NOT_NAMED 1898-09-06 15:00:00 TS 21.2500 -93.1501 main 294 294 _____________P -1 21.2500 -93.1501 HU 65 10 317
1898245N14281 1898 35 NA GM NOT_NAMED 1898-09-06 18:00:00 TS 21.6000 -93.5000 main 333 333 _____________O -1 21.6000 -93.5000 HU 65 9 317
1898245N14281 1898 35 NA GM NOT_NAMED 1898-09-06 21:00:00 TS 21.9275 -93.8301 main 350 336 _____________P -1 21.9275 -93.8301 HU 65 9 322
1898245N14281 1898 35 NA GM NOT_NAMED 1898-09-07 00:00:00 TS 22.3000 -94.1000 main 339 331 _____________O -1 22.3000 -94.1000 HU 65 10 334
1898245N14281 1898 35 NA GM NOT_NAMED 1898-09-07 03:00:00 TS 22.7849 -94.2727 main 336 336 _____________P -1 22.7849 -94.2727 HU 65 10 344
1898245N14281 1898 35 NA GM NOT_NAMED 1898-09-07 06:00:00 TS 23.3000 -94.4000 main 347 335 _____________O -1 23.3000 -94.4000 HU 65 10 345
1898245N14281 1898 35 NA GM NOT_NAMED 1898-09-07 09:00:00 TS 23.7575 -94.5575 main 322 294 _____________P -1 23.7575 -94.5575 HU 65 9 343
1898245N14281 1898 35 NA GM NOT_NAMED 1898-09-07 12:00:00 TS 24.2000 -94.7000 main 294 266 _____________O -1 24.2000 -94.7000 HU 65 9 345
1898245N14281 1898 35 NA GM NOT_NAMED 1898-09-07 15:00:00 TS 24.6500 -94.8225 main 261 237 _____________P -1 24.6500 -94.8225 HU 65 9 349
1898245N14281 1898 35 NA GM NOT_NAMED 1898-09-07 18:00:00 TS 25.1000 -94.9000 main 237 224 _____________O -1 25.1000 -94.9000 HU 65 10 355
1898245N14281 1898 35 NA GM NOT_NAMED 1898-09-07 21:00:00 TS 25.5950 -94.9226 main 224 219 _____________P -1 25.5950 -94.9226 HU 65 9 0
1898245N14281 1898 35 NA GM NOT_NAMED 1898-09-08 00:00:00 TS 26.0000 -94.9000 main 219 219 _____________O -1 26.0000 -94.9000 HU 65 6 2
1898245N14281 1898 35 NA GM NOT_NAMED 1898-09-08 03:00:00 TS 26.2023 -94.9099 main 220 220 _____________P -1 26.2023 -94.9099 HU 65 3 16
1898245N14281 1898 35 NA GM NOT_NAMED 1898-09-08 06:00:00 TS 26.3000 -94.8000 main 231 231 _____________O -1 26.3000 -94.8000 HU 65 4 63
1898245N14281 1898 35 NA GM NOT_NAMED 1898-09-08 09:00:00 TS 26.4000 -94.4749 main 262 262 _____________P -1 26.4000 -94.4749 HU 62 7 74
1898245N14281 1898 35 NA GM NOT_NAMED 1898-09-08 12:00:00 TS 26.5000 -94.0000 main 301 301 _____________O -1 26.5000 -94.0000 TS 60 9 74
1898245N14281 1898 35 NA GM NOT_NAMED 1898-09-08 15:00:00 TS 26.6500 -93.4726 main 306 306 _____________P -1 26.6500 -93.4726 TS 60 10 73
1898245N14281 1898 35 NA GM NOT_NAMED 1898-09-08 18:00:00 TS 26.8000 -92.9000 main 307 281 _____________O -1 26.8000 -92.9000 TS 60 11 76
1898245N14281 1898 35 NA GM NOT_NAMED 1898-09-08 21:00:00 TS 26.9076 -92.3124 main 281 250 _____________P -1 26.9076 -92.3124 TS 57 10 78
1898245N14281 1898 35 NA GM NOT_NAMED 1898-09-09 00:00:00 TS 27.0000 -91.8000 main 250 230 _____________O -1 27.0000 -91.8000 TS 55 8 75
1898245N14281 1898 35 NA GM NOT_NAMED 1898-09-09 03:00:00 TS 27.1072 -91.4549 main 230 214 _____________P -1 27.1072 -91.4549 TS 55 6 69
1898245N14281 1898 35 NA GM NOT_NAMED 1898-09-09 06:00:00 TS 27.2000 -91.2000 main 214 201 _____________O -1 27.2000 -91.2000 TS 55 5 71
1898245N14281 1898 35 NA GM NOT_NAMED 1898-09-09 09:00:00 TS 27.2574 -90.9499 main 200 200 _____________P -1 27.2574 -90.9499 TS 52 5 77
1898245N14281 1898 35 NA GM NOT_NAMED 1898-09-09 12:00:00 TS 27.3000 -90.7000 main 201 200 _____________O -1 27.3000 -90.7000 TS 50 5 79
1898245N14281 1898 35 NA GM NOT_NAMED 1898-09-09 15:00:00 TS 27.3500 -90.4000 main 190 189 _____________P -1 27.3500 -90.4000 TS 50 5 79
1898245N14281 1898 35 NA GM NOT_NAMED 1898-09-09 18:00:00 TS 27.4000 -90.1000 main 189 189 _____________O -1 27.4000 -90.1000 TS 50 6 80
1898245N14281 1898 35 NA GM NOT_NAMED 1898-09-09 21:00:00 TS 27.4425 -89.7826 main 191 174 _____________P -1 27.4425 -89.7826 TS 47 5 77
1898245N14281 1898 35 NA GM NOT_NAMED 1898-09-10 00:00:00 TS 27.5000 -89.6000 main 174 163 _____________O -1 27.5000 -89.6000 TS 45 2 27
1898245N14281 1898 35 NA GM NOT_NAMED 1898-09-10 03:00:00 TS 27.5925 -89.6899 main 166 157 _____________P -1 27.5925 -89.6899 TS 45 3 307
1898245N14281 1898 35 NA GM NOT_NAMED 1898-09-10 06:00:00 TS 27.7000 -89.9000 main 157 145 _____________O -1 27.7000 -89.9000 TS 45 4 303
1898245N14281 1898 35 NA GM NOT_NAMED 1898-09-10 09:00:00 TS 27.8000 -90.0500 main 145 133 _____________P -1 27.8000 -90.0500 TS 45 3 307
1898245N14281 1898 35 NA GM NOT_NAMED 1898-09-10 12:00:00 TS 27.9000 -90.2000 main 133 123 _____________O -1 27.9000 -90.2000 TS 45 3 308
1898245N14281 1898 35 NA GM NOT_NAMED 1898-09-10 15:00:00 TS 28.0075 -90.3500 main 123 112 _____________P -1 28.0075 -90.3500 TS 45 3 307
1898245N14281 1898 35 NA GM NOT_NAMED 1898-09-10 18:00:00 TS 28.1000 -90.5000 main 112 111 _____________O -1 28.1000 -90.5000 TS 45 3 297
1898245N14281 1898 35 NA GM NOT_NAMED 1898-09-10 21:00:00 TS 28.1425 -90.6501 main 112 100 _____________P -1 28.1425 -90.6501 TS 45 3 291
1898245N14281 1898 35 NA GM NOT_NAMED 1898-09-11 00:00:00 TS 28.2000 -90.8000 main 100 89 _____________O -1 28.2000 -90.8000 TS 45 3 305
1898245N14281 1898 35 NA GM NOT_NAMED 1898-09-11 03:00:00 TS 28.3350 -90.9575 main 89 69 _____________P -1 28.3350 -90.9575 TS 45 4 319
1898245N14281 1898 35 NA GM NOT_NAMED 1898-09-11 06:00:00 TS 28.5000 -91.1000 main 69 59 _____________O -1 28.5000 -91.1000 TS 45 4 326
1898245N14281 1898 35 NA GM NOT_NAMED 1898-09-11 09:00:00 TS 28.6500 -91.2001 main 62 48 _____________P -1 28.6500 -91.2001 TS 45 3 330
1898245N14281 1898 35 NA GM NOT_NAMED 1898-09-11 12:00:00 TS 28.8000 -91.3000 main 48 38 _____________O -1 28.8000 -91.3000 TS 45 4 325
1898245N14281 1898 35 NA GM NOT_NAMED 1898-09-11 15:00:00 TS 28.9575 -91.4500 main 36 36 _____________P -1 28.9575 -91.4500 TS 45 4 319
1898245N14281 1898 35 NA GM NOT_NAMED 1898-09-11 18:00:00 TS 29.1000 -91.6000 main 44 34 _____________O -1 29.1000 -91.6000 TS 45 3 317
1898245N14281 1898 35 NA GM NOT_NAMED 1898-09-11 21:00:00 TS 29.2000 -91.7076 main 34 29 _____________P -1 29.2000 -91.7076 TS 42 3 319
1898245N14281 1898 35 NA GM NOT_NAMED 1898-09-12 00:00:00 TS 29.3000 -91.8000 main 29 22 _____________O -1 29.3000 -91.8000 TS 40 3 326
1898245N14281 1898 35 NA GM NOT_NAMED 1898-09-12 03:00:00 TS 29.4500 -91.9000 main 29 9 _____________P -1 29.4500 -91.9000 TS 40 3 330
1898245N14281 1898 35 NA GM NOT_NAMED 1898-09-12 06:00:00 TS 29.6000 -92.0000 main 9 0 _____________O -1 29.6000 -92.0000 TS 40 3 324
1898245N14281 1898 35 NA GM NOT_NAMED 1898-09-12 09:00:00 TS 29.6925 -92.1001 main 0 0 _____________P -1 29.6925 -92.1001 TS 37 3 319
1898245N14281 1898 35 NA NA NOT_NAMED 1898-09-12 12:00:00 TS 29.8000 -92.2000 main 0 0 _____________O -1 29.8000 -92.2000 TS 35 4 329
1898245N14281 1898 35 NA NA NOT_NAMED 1898-09-12 15:00:00 TS 29.9925 -92.3074 main 0 0 _____________P -1 29.9925 -92.3074 TS 32 4 337
1898245N14281 1898 35 NA NA NOT_NAMED 1898-09-12 18:00:00 TS 30.2000 -92.4000 main 0 0 _____________O -1 30.2000 -92.4000 TD 30 4 340
1898245N14281 1898 35 NA NA NOT_NAMED 1898-09-12 21:00:00 TS 30.3650 -92.4600 main 0 0 _____________P -1 30.3650 -92.4600 TD 30 3 344
1898245N14281 1898 35 NA NA NOT_NAMED 1898-09-13 00:00:00 TS 30.5000 -92.5000 main 0 _____________O -1 30.5000 -92.5000 TD 30 3 341

IBTrACS Databaseについて

本データベースは、米国NOAAが公開する1842年以降の世界の熱帯低気圧のベストトラックデータアーカイブInternational Best Track Archive for Climate Stewardship (IBTrACS)を、ウェブで閲覧しやすい形式に変換したものです。

最終更新日:2021-11-26